createdAt,value
2019-05-05T00:01:57.699Z,101203.83
2019-05-05T00:05:01.680Z,101203.19
2019-05-05T00:07:35.987Z,101206.22
2019-05-05T00:10:10.244Z,101203.14
2019-05-05T00:12:58.054Z,101202.80
2019-05-05T00:16:06.727Z,101210.68
2019-05-05T00:18:37.940Z,101212.87
2019-05-05T00:21:09.688Z,101215.12
2019-05-05T00:23:45.110Z,101214.68
2019-05-05T00:26:16.424Z,101219.03
2019-05-05T00:28:47.348Z,101221.69
2019-05-05T00:31:18.202Z,101214.69
2019-05-05T00:33:48.703Z,101221.77
2019-05-05T00:36:19.674Z,101221.77
2019-05-05T00:38:51.494Z,101228.81
2019-05-05T00:41:25.187Z,101232.30
2019-05-05T00:43:58.140Z,101232.38
2019-05-05T00:46:51.537Z,101231.14
2019-05-05T00:49:21.720Z,101237.30
2019-05-05T00:51:51.875Z,101237.70
2019-05-05T00:54:24.279Z,101238.84
2019-05-05T00:56:55.677Z,101242.66
2019-05-05T00:59:35.514Z,101252.22
2019-05-05T01:02:34.434Z,101246.94
2019-05-05T01:05:25.360Z,101248.89
2019-05-05T01:07:56.838Z,101242.66
2019-05-05T01:10:27.440Z,101242.70
2019-05-05T01:12:57.609Z,101249.66
2019-05-05T01:15:27.908Z,101251.05
2019-05-05T01:17:58.598Z,101254.17
2019-05-05T01:20:29.217Z,101257.28
2019-05-05T01:23:00.731Z,101256.53
2019-05-05T01:25:32.140Z,101256.70
2019-05-05T01:28:04.861Z,101262.38
2019-05-05T01:30:36.874Z,101260.09
2019-05-05T01:33:14.602Z,101258.81
2019-05-05T01:35:46.641Z,101258.45
2019-05-05T01:38:44.668Z,101258.38
2019-05-05T01:41:30.792Z,101261.86
2019-05-05T01:44:04.864Z,101257.17
2019-05-05T01:46:35.590Z,101265.61
2019-05-05T01:49:06.698Z,101264.25
2019-05-05T01:51:39.554Z,101265.27
2019-05-05T01:54:10.019Z,101272.16
2019-05-05T01:56:41.122Z,101264.76
2019-05-05T01:59:11.820Z,101266.92
2019-05-05T02:01:44.554Z,101269.25
2019-05-05T02:04:15.937Z,101269.12
2019-05-05T02:06:54.966Z,101270.47
2019-05-05T02:09:26.582Z,101271.77
2019-05-05T02:11:57.559Z,101269.12
2019-05-05T02:14:28.208Z,101265.20
2019-05-05T02:16:58.889Z,101259.92
2019-05-05T02:19:31.066Z,101262.22
2019-05-05T02:22:02.587Z,101270.91
2019-05-05T02:24:35.332Z,101267.46
2019-05-05T02:27:06.544Z,101271.83
2019-05-05T02:30:07.110Z,101269.31
2019-05-05T02:32:55.491Z,101267.99
2019-05-05T02:35:25.905Z,101274.17
2019-05-05T02:37:56.589Z,101274.59
2019-05-05T02:40:28.124Z,101268.97
2019-05-05T02:42:58.430Z,101273.76
2019-05-05T02:45:46.839Z,101279.89
2019-05-05T02:48:19.031Z,101280.86
2019-05-05T02:51:01.213Z,101277.69
2019-05-05T02:53:38.008Z,101278.66
2019-05-05T02:56:16.644Z,101278.20
2019-05-05T02:58:53.696Z,101287.87
2019-05-05T03:01:35.861Z,101290.15
2019-05-05T03:04:07.612Z,101290.61
2019-05-05T03:06:43.716Z,101288.86
2019-05-05T03:09:18.099Z,101290.20
2019-05-05T03:11:50.034Z,101292.33
2019-05-05T03:14:23.699Z,101293.20
2019-05-05T03:16:54.466Z,101289.75
2019-05-05T03:19:26.589Z,101294.13
2019-05-05T03:21:58.063Z,101290.13
2019-05-05T03:24:30.083Z,101294.98
2019-05-05T03:27:03.806Z,101292.34
2019-05-05T03:29:35.991Z,101296.34
2019-05-05T03:32:11.276Z,101292.36
2019-05-05T03:34:40.039Z,101304.20
2019-05-05T03:37:10.863Z,101305.55
2019-05-05T03:39:44.772Z,101305.51
2019-05-05T03:42:25.636Z,101300.67
2019-05-05T03:45:14.707Z,101302.88
2019-05-05T03:47:47.189Z,101308.56
2019-05-05T03:50:18.159Z,101311.72
2019-05-05T03:52:50.746Z,101304.25
2019-05-05T03:55:24.153Z,101309.02
2019-05-05T03:57:57.896Z,101315.19
2019-05-05T04:01:19.121Z,101315.63
2019-05-05T04:03:51.680Z,101321.30
2019-05-05T04:06:38.273Z,101316.50
2019-05-05T04:09:11.337Z,101318.70
2019-05-05T04:11:44.378Z,101316.91
2019-05-05T04:14:19.052Z,101318.66
2019-05-05T04:16:57.482Z,101322.55
2019-05-05T04:19:29.416Z,101323.89
2019-05-05T04:22:00.692Z,101322.53
2019-05-05T04:24:34.133Z,101327.05
2019-05-05T04:27:06.028Z,101322.66
2019-05-05T04:29:36.204Z,101317.39
2019-05-05T04:32:06.373Z,101315.63
2019-05-05T04:34:36.952Z,101319.53
2019-05-05T04:37:08.557Z,101319.05
2019-05-05T04:39:39.225Z,101332.61
2019-05-05T04:42:09.375Z,101330.34
2019-05-05T04:44:41.467Z,101335.64
2019-05-05T04:47:17.581Z,101347.93
2019-05-05T04:50:09.965Z,101348.32
2019-05-05T04:52:43.318Z,101361.91
2019-05-05T04:55:13.915Z,101360.78
2019-05-05T04:57:44.574Z,101369.81
2019-05-05T05:00:16.488Z,101373.72
2019-05-05T05:03:14.574Z,101367.59
2019-05-05T05:06:04.230Z,101368.72
2019-05-05T05:08:35.108Z,101372.58
2019-05-05T05:11:06.479Z,101368.75
2019-05-05T05:13:36.927Z,101372.98
2019-05-05T05:16:11.040Z,101379.98
2019-05-05T05:18:41.309Z,101384.79
2019-05-05T05:21:12.045Z,101383.55
2019-05-05T05:23:44.362Z,101393.52
2019-05-05T05:26:15.841Z,101392.64
2019-05-05T05:28:47.256Z,101393.12
2019-05-05T05:31:19.897Z,101399.20
2019-05-05T05:33:50.883Z,101400.08
2019-05-05T05:36:21.838Z,101398.36
2019-05-05T05:38:54.288Z,101408.00
2019-05-05T05:41:46.729Z,101402.00
2019-05-05T05:44:54.119Z,101400.91
2019-05-05T05:47:48.090Z,101409.19
2019-05-05T05:50:25.687Z,101412.09
2019-05-05T05:52:56.125Z,101408.61
2019-05-05T05:55:26.799Z,101415.62
2019-05-05T05:57:57.632Z,101422.23
2019-05-05T06:00:28.563Z,101423.06
2019-05-05T06:03:03.895Z,101428.89
2019-05-05T06:05:35.282Z,101433.50
2019-05-05T06:08:06.017Z,101438.44
2019-05-05T06:10:37.553Z,101440.45
2019-05-05T06:13:09.092Z,101446.31
2019-05-05T06:15:39.506Z,101443.05
2019-05-05T06:18:11.033Z,101445.25
2019-05-05T06:20:44.540Z,101446.47
2019-05-05T06:23:14.916Z,101449.16
2019-05-05T06:25:45.369Z,101458.30
2019-05-05T06:28:16.235Z,101454.44
2019-05-05T06:30:47.197Z,101458.25
2019-05-05T06:33:20.418Z,101459.99
2019-05-05T06:35:51.154Z,101460.45
2019-05-05T06:38:24.170Z,101467.94
2019-05-05T06:41:08.487Z,101467.45
2019-05-05T06:44:03.579Z,101470.95
2019-05-05T06:46:53.759Z,101468.56
2019-05-05T06:49:26.020Z,101469.27
2019-05-05T06:51:56.543Z,101468.30
2019-05-05T06:54:26.810Z,101470.34
2019-05-05T06:56:58.602Z,101470.44
2019-05-05T06:59:29.915Z,101468.17
2019-05-05T07:02:00.963Z,101467.15
2019-05-05T07:04:33.789Z,101466.63
2019-05-05T07:07:05.160Z,101469.87
2019-05-05T07:09:36.670Z,101476.34
2019-05-05T07:12:07.760Z,101469.36
2019-05-05T07:14:37.915Z,101470.52
2019-05-05T07:17:08.077Z,101470.25
2019-05-05T07:19:38.881Z,101477.05
2019-05-05T07:22:09.029Z,101482.66
2019-05-05T07:24:43.518Z,101482.07
2019-05-05T07:27:13.984Z,101486.00
2019-05-05T07:29:45.434Z,101488.28
2019-05-05T07:32:17.130Z,101494.75
2019-05-05T07:35:07.159Z,101495.55
2019-05-05T07:37:38.438Z,101495.85
2019-05-05T07:40:30.210Z,101494.39
2019-05-05T07:43:04.352Z,101491.56
2019-05-05T07:45:45.039Z,101496.83
2019-05-05T07:48:25.251Z,101498.97
2019-05-05T07:51:04.459Z,101502.36
2019-05-05T07:53:45.270Z,101495.94
2019-05-05T07:56:18.646Z,101496.14
2019-05-05T07:59:05.741Z,101498.18
2019-05-05T08:01:45.860Z,101500.38
2019-05-05T08:04:18.205Z,101498.70
2019-05-05T08:06:57.224Z,101504.33
2019-05-05T08:09:39.173Z,101501.59
2019-05-05T08:12:34.252Z,101499.08
2019-05-05T08:18:00.233Z,101496.34
2019-05-05T08:20:35.638Z,101500.66
2019-05-05T08:23:28.623Z,101497.64
2019-05-05T08:25:59.673Z,101508.15
2019-05-05T08:28:49.090Z,101497.94
2019-05-05T08:31:48.993Z,101493.69
2019-05-05T08:34:25.727Z,101493.56
2019-05-05T08:36:59.985Z,101492.07
2019-05-05T08:39:35.561Z,101496.53
2019-05-05T08:42:14.448Z,101484.85
2019-05-05T08:44:46.695Z,101488.80
2019-05-05T08:47:18.870Z,101493.59
2019-05-05T08:49:53.609Z,101495.55
2019-05-05T08:52:24.651Z,101496.70
2019-05-05T08:54:58.687Z,101491.77
2019-05-05T08:57:31.289Z,101491.50
2019-05-05T09:00:07.037Z,101488.25
2019-05-05T09:02:38.790Z,101491.02
2019-05-05T09:05:14.594Z,101487.63
2019-05-05T09:07:49.186Z,101481.42
2019-05-05T09:10:23.689Z,101473.67
2019-05-05T09:12:56.613Z,101479.52
2019-05-05T09:15:30.844Z,101479.06
2019-05-05T09:18:05.127Z,101481.88
2019-05-05T09:20:38.796Z,101473.50
2019-05-05T09:23:14.578Z,101479.47
2019-05-05T09:26:10.974Z,101480.52
2019-05-05T09:29:09.935Z,101473.63
2019-05-05T09:31:45.060Z,101473.52
2019-05-05T09:34:19.237Z,101489.98
2019-05-05T09:36:54.428Z,101489.03
2019-05-05T09:39:28.916Z,101501.91
2019-05-05T09:42:00.580Z,101507.61
2019-05-05T09:44:31.616Z,101502.86
2019-05-05T09:47:05.428Z,101498.66
2019-05-05T09:49:37.533Z,101508.90
2019-05-05T09:52:11.149Z,101505.05
2019-05-05T09:54:44.333Z,101503.18
2019-05-05T09:57:20.843Z,101507.66
2019-05-05T09:59:54.487Z,101508.91
2019-05-05T10:02:27.917Z,101504.58
2019-05-05T10:05:01.133Z,101504.51
2019-05-05T10:07:36.838Z,101505.91
2019-05-05T10:10:11.174Z,101513.64
2019-05-05T10:12:57.144Z,101510.55
2019-05-05T10:15:33.789Z,101503.44
2019-05-05T10:18:14.187Z,101504.39
2019-05-05T10:21:01.907Z,101504.05
2019-05-05T10:23:39.799Z,101507.84
2019-05-05T10:26:11.970Z,101509.69
2019-05-05T10:28:45.443Z,101517.39
2019-05-05T10:31:21.303Z,101514.19
2019-05-05T10:33:58.441Z,101521.72
2019-05-05T10:36:33.755Z,101531.92
2019-05-05T10:39:14.502Z,101527.34
2019-05-05T10:41:54.694Z,101533.22
2019-05-05T10:44:26.875Z,101542.59
2019-05-05T10:47:01.647Z,101538.42
2019-05-05T10:49:37.468Z,101536.44
2019-05-05T10:52:10.770Z,101537.38
2019-05-05T10:54:45.188Z,101532.42
2019-05-05T10:57:28.384Z,101529.42
2019-05-05T11:00:11.675Z,101521.58
2019-05-05T11:02:38.907Z,101528.41
2019-05-05T11:05:17.030Z,101523.98
2019-05-05T11:07:53.658Z,101520.80
2019-05-05T11:10:36.997Z,101522.79
2019-05-05T11:13:14.262Z,101517.27
2019-05-05T11:15:48.078Z,101511.52
2019-05-05T11:18:20.831Z,101514.12
2019-05-05T11:20:54.837Z,101513.62
2019-05-05T11:23:29.315Z,101510.83
2019-05-05T11:26:01.050Z,101508.70
2019-05-05T11:28:33.892Z,101500.81
2019-05-05T11:31:05.267Z,101494.87
2019-05-05T11:33:49.009Z,101498.04
2019-05-05T11:36:34.565Z,101498.20
2019-05-05T11:39:08.605Z,101496.73
2019-05-05T11:41:39.029Z,101493.20
2019-05-05T11:44:09.760Z,101499.95
2019-05-05T11:46:41.564Z,101491.77
2019-05-05T11:49:13.943Z,101491.02
2019-05-05T11:51:45.423Z,101490.36
2019-05-05T11:54:17.719Z,101499.42
2019-05-05T11:56:48.834Z,101499.42
2019-05-05T11:59:19.046Z,101489.38
2019-05-05T12:01:50.878Z,101492.78
2019-05-05T12:04:24.132Z,101493.92
2019-05-05T12:06:55.830Z,101490.31
2019-05-05T12:09:39.902Z,101498.66
2019-05-05T12:12:11.578Z,101503.83
2019-05-05T12:14:44.456Z,101503.01
2019-05-05T12:17:17.815Z,101507.52
2019-05-05T12:19:51.401Z,101503.08
2019-05-05T12:22:23.618Z,101506.97
2019-05-05T12:24:54.790Z,101513.75
2019-05-05T12:27:30.547Z,101511.07
2019-05-05T12:30:06.018Z,101520.92
2019-05-05T12:32:36.553Z,101524.84
2019-05-05T12:35:08.044Z,101519.16
2019-05-05T12:37:40.159Z,101515.84
2019-05-05T12:40:11.592Z,101501.45
2019-05-05T12:42:44.026Z,101506.58
2019-05-05T12:45:23.971Z,101507.45
2019-05-05T12:48:15.226Z,101509.42
2019-05-05T12:50:47.149Z,101508.22
2019-05-05T12:53:19.918Z,101505.07
2019-05-05T12:55:53.803Z,101510.14
2019-05-05T12:58:24.884Z,101506.37
2019-05-05T13:01:20.587Z,101502.89
2019-05-05T13:03:54.273Z,101502.89
2019-05-05T13:06:26.105Z,101501.27
2019-05-05T13:08:59.106Z,101507.20
2019-05-05T13:11:34.327Z,101504.23
2019-05-05T13:14:07.260Z,101507.95
2019-05-05T13:16:50.588Z,101503.88
2019-05-05T13:19:25.153Z,101517.20
2019-05-05T13:22:26.318Z,101525.53
2019-05-05T13:25:06.594Z,101520.39
2019-05-05T13:27:40.536Z,101528.69
2019-05-05T13:30:11.856Z,101527.55
2019-05-05T13:32:44.089Z,101526.13
2019-05-05T13:35:17.376Z,101517.58
2019-05-05T13:37:49.029Z,101520.95
2019-05-05T13:40:24.050Z,101514.95
2019-05-05T13:42:55.679Z,101516.91
2019-05-05T13:45:43.595Z,101522.20
2019-05-05T13:48:17.412Z,101521.80
2019-05-05T13:50:51.362Z,101522.13
2019-05-05T13:53:23.796Z,101515.42
2019-05-05T13:56:08.184Z,101520.80
2019-05-05T13:58:28.466Z,101517.25
2019-05-05T14:00:59.089Z,101517.98
2019-05-05T14:03:29.924Z,101512.02
2019-05-05T14:06:00.389Z,101509.86
2019-05-05T14:08:35.577Z,101510.63
2019-05-05T14:11:06.264Z,101507.66
2019-05-05T14:13:39.883Z,101512.44
2019-05-05T14:16:17.186Z,101522.19
2019-05-05T14:18:50.363Z,101518.77
2019-05-05T14:21:20.589Z,101517.00
2019-05-05T14:24:29.470Z,101512.09
2019-05-05T14:27:00.681Z,101516.81
2019-05-05T14:30:03.901Z,101514.42
2019-05-05T14:32:38.511Z,101511.81
2019-05-05T14:35:31.623Z,101515.14
2019-05-05T14:38:06.848Z,101509.67
2019-05-05T14:40:38.623Z,101502.64
2019-05-05T14:43:13.295Z,101506.55
2019-05-05T14:45:44.372Z,101499.67
2019-05-05T14:48:16.743Z,101489.94
2019-05-05T14:50:51.915Z,101492.84
2019-05-05T14:53:24.517Z,101490.91
2019-05-05T14:55:57.564Z,101492.36
2019-05-05T14:58:31.383Z,101483.44
2019-05-05T15:01:04.447Z,101490.82
2019-05-05T15:03:34.774Z,101498.48
2019-05-05T15:06:15.379Z,101491.63
2019-05-05T15:09:05.484Z,101495.17
2019-05-05T15:11:53.840Z,101494.41
2019-05-05T15:14:25.368Z,101492.42
2019-05-05T15:16:56.993Z,101486.28
2019-05-05T15:19:33.995Z,101485.58
2019-05-05T15:22:06.252Z,101482.05
2019-05-05T15:24:38.105Z,101488.66
2019-05-05T15:27:10.363Z,101479.80
2019-05-05T15:29:43.734Z,101481.95
2019-05-05T15:32:17.624Z,101478.69
2019-05-05T15:34:49.048Z,101475.67
2019-05-05T15:37:21.038Z,101471.48
2019-05-05T15:39:53.406Z,101472.03
2019-05-05T15:42:24.624Z,101465.59
2019-05-05T15:44:57.349Z,101465.00
2019-05-05T15:47:30.884Z,101469.20
2019-05-05T15:50:01.546Z,101464.66
2019-05-05T15:52:35.271Z,101473.11
2019-05-05T15:55:13.999Z,101463.78
2019-05-05T15:57:45.898Z,101465.73
2019-05-05T16:00:19.299Z,101467.08
2019-05-05T16:02:51.177Z,101475.38
2019-05-05T16:05:25.009Z,101471.69
2019-05-05T16:07:56.212Z,101471.89
2019-05-05T16:10:27.017Z,101475.42
2019-05-05T16:12:58.136Z,101475.13
2019-05-05T16:15:53.538Z,101476.44
2019-05-05T16:18:48.409Z,101484.22
2019-05-05T16:21:49.920Z,101486.23
2019-05-05T16:24:24.681Z,101486.52
2019-05-05T16:26:57.314Z,101480.96
2019-05-05T16:29:29.739Z,101482.47
2019-05-05T16:32:05.430Z,101476.25
2019-05-05T16:34:35.654Z,101482.30
2019-05-05T16:37:09.292Z,101483.72
2019-05-05T16:39:39.848Z,101477.02
2019-05-05T16:42:13.560Z,101481.68
2019-05-05T16:44:46.995Z,101473.53
2019-05-05T16:47:21.535Z,101480.50
2019-05-05T16:49:53.808Z,101487.02
2019-05-05T16:52:36.892Z,101490.61
2019-05-05T16:55:40.510Z,101487.45
2019-05-05T16:58:14.037Z,101486.83
2019-05-05T17:00:47.562Z,101494.44
2019-05-05T17:03:21.628Z,101492.69
2019-05-05T17:05:54.660Z,101494.25
2019-05-05T17:08:28.791Z,101492.14
2019-05-05T17:10:59.844Z,101498.13
2019-05-05T17:13:54.885Z,101491.31
2019-05-05T17:16:51.135Z,101492.44
2019-05-05T17:19:34.736Z,101499.91
2019-05-05T17:22:22.984Z,101499.80
2019-05-05T17:24:53.597Z,101501.77
2019-05-05T17:27:29.178Z,101500.89
2019-05-05T17:30:01.041Z,101504.36
2019-05-05T17:32:43.628Z,101498.28
2019-05-05T17:35:16.549Z,101496.48
2019-05-05T17:37:53.723Z,101495.00
2019-05-05T17:40:54.481Z,101495.67
2019-05-05T17:43:40.084Z,101495.02
2019-05-05T17:46:33.698Z,101496.50
2019-05-05T17:49:26.863Z,101501.11
2019-05-05T17:52:04.558Z,101498.73
2019-05-05T17:54:44.518Z,101510.56
2019-05-05T17:57:14.926Z,101507.84
2019-05-05T17:59:47.021Z,101508.00
2019-05-05T18:02:17.893Z,101508.00
2019-05-05T18:04:49.074Z,101506.34
2019-05-05T18:07:40.692Z,101505.98
2019-05-05T18:10:34.431Z,101504.26
2019-05-05T18:13:25.291Z,101510.95
2019-05-05T18:16:04.925Z,101507.11
2019-05-05T18:19:04.545Z,101510.84
2019-05-05T18:22:08.162Z,101513.41
2019-05-05T18:24:42.104Z,101507.72
2019-05-05T18:27:52.026Z,101514.53
2019-05-05T18:30:26.779Z,101514.89
2019-05-05T18:32:59.263Z,101514.51
2019-05-05T18:35:31.401Z,101519.34
2019-05-05T18:38:06.868Z,101515.25
2019-05-05T18:40:37.560Z,101521.03
2019-05-05T18:43:14.825Z,101520.91
2019-05-05T18:45:45.429Z,101504.50
2019-05-05T18:48:20.805Z,101529.44
2019-05-05T18:50:54.156Z,101530.55
2019-05-05T18:53:27.182Z,101536.03
2019-05-05T18:56:09.386Z,101534.75
2019-05-05T18:58:40.585Z,101531.69
2019-05-05T19:01:41.943Z,101539.68
2019-05-05T19:04:48.675Z,101535.13
2019-05-05T19:07:54.409Z,101548.43
2019-05-05T19:10:18.084Z,101550.27
2019-05-05T19:12:53.948Z,101549.63
2019-05-05T19:15:29.606Z,101553.13
2019-05-05T19:18:04.064Z,101554.52
2019-05-05T19:21:14.200Z,101557.95
2019-05-05T19:23:45.034Z,101556.63
2019-05-05T19:26:19.644Z,101566.09
2019-05-05T19:29:04.412Z,101562.17
2019-05-05T19:31:36.589Z,101560.80
2019-05-05T19:34:14.458Z,101565.87
2019-05-05T19:36:47.862Z,101567.14
2019-05-05T19:39:19.235Z,101572.12
2019-05-05T19:42:09.534Z,101573.59
2019-05-05T19:44:45.721Z,101579.05
2019-05-05T19:47:24.630Z,101586.88
2019-05-05T19:50:21.624Z,101579.48
2019-05-05T19:52:53.876Z,101578.27
2019-05-05T19:55:26.525Z,101588.66
2019-05-05T19:57:57.552Z,101590.63
2019-05-05T20:00:30.694Z,101594.56
2019-05-05T20:03:09.101Z,101595.11
2019-05-05T20:05:43.116Z,101592.94
2019-05-05T20:08:19.974Z,101585.75
2019-05-05T20:10:54.176Z,101592.02
2019-05-05T20:13:27.324Z,101587.69
2019-05-05T20:16:24.840Z,101591.61
2019-05-05T20:19:05.307Z,101596.16
2019-05-05T20:21:36.983Z,101600.97
2019-05-05T20:24:10.555Z,101596.69
2019-05-05T20:26:42.812Z,101596.99
2019-05-05T20:29:17.164Z,101592.30
2019-05-05T20:31:49.766Z,101597.08
2019-05-05T20:34:29.299Z,101601.57
2019-05-05T20:37:18.422Z,101605.20
2019-05-05T20:39:50.686Z,101605.02
2019-05-05T20:42:22.215Z,101606.00
2019-05-05T20:45:07.332Z,101607.77
2019-05-05T20:47:43.986Z,101606.63
2019-05-05T20:50:17.525Z,101605.89
2019-05-05T20:52:54.340Z,101606.63
2019-05-05T20:55:38.610Z,101602.72
2019-05-05T20:58:13.979Z,101607.96
2019-05-05T21:00:51.677Z,101611.20
2019-05-05T21:03:29.865Z,101606.29
2019-05-05T21:06:04.322Z,101610.14
2019-05-05T21:08:39.602Z,101611.16
2019-05-05T21:11:10.325Z,101609.04
2019-05-05T21:13:51.538Z,101608.93
2019-05-05T21:16:38.904Z,101613.78
2019-05-05T21:19:16.925Z,101616.72
2019-05-05T21:21:54.436Z,101611.84
2019-05-05T21:24:27.637Z,101615.48
2019-05-05T21:26:59.942Z,101609.67
2019-05-05T21:29:39.611Z,101617.27
2019-05-05T21:32:04.697Z,101615.69
2019-05-05T21:34:36.243Z,101612.34
2019-05-05T21:37:08.996Z,101621.70
2019-05-05T21:39:39.540Z,101614.64
2019-05-05T21:42:13.900Z,101617.81
2019-05-05T21:44:46.179Z,101618.16
2019-05-05T21:47:17.210Z,101618.81
2019-05-05T21:49:54.228Z,101619.69
2019-05-05T21:52:47.562Z,101623.30
2019-05-05T21:55:24.438Z,101625.77
2019-05-05T21:58:15.560Z,101631.54
2019-05-05T22:01:07.652Z,101626.56
2019-05-05T22:03:41.034Z,101629.53
2019-05-05T22:06:16.657Z,101632.19
2019-05-05T22:08:50.737Z,101625.26
2019-05-05T22:11:24.096Z,101627.45
2019-05-05T22:13:57.686Z,101626.64
2019-05-05T22:16:35.281Z,101627.45
2019-05-05T22:19:06.558Z,101625.09
2019-05-05T22:21:49.254Z,101624.41
2019-05-05T22:24:23.704Z,101623.76
2019-05-05T22:26:56.962Z,101631.13
2019-05-05T22:29:29.711Z,101626.92
2019-05-05T22:32:01.203Z,101627.44
2019-05-05T22:34:34.713Z,101627.75
2019-05-05T22:37:09.743Z,101625.25
2019-05-05T22:39:44.376Z,101624.70
2019-05-05T22:42:15.761Z,101626.58
2019-05-05T22:44:47.334Z,101627.81
2019-05-05T22:47:19.633Z,101631.36
2019-05-05T22:49:57.754Z,101624.86
2019-05-05T22:52:31.738Z,101630.45
2019-05-05T22:55:04.568Z,101625.25
2019-05-05T22:57:36.627Z,101627.86
2019-05-05T23:00:23.797Z,101633.55
2019-05-05T23:02:50.008Z,101635.03
2019-05-05T23:05:50.734Z,101624.83
2019-05-05T23:08:24.417Z,101632.97
2019-05-05T23:10:59.589Z,101625.12
2019-05-05T23:13:33.747Z,101631.64
2019-05-05T23:16:14.991Z,101637.44
2019-05-05T23:18:46.899Z,101627.22
2019-05-05T23:21:34.169Z,101627.98
2019-05-05T23:24:26.296Z,101633.03
2019-05-05T23:26:57.666Z,101624.50
2019-05-05T23:29:29.968Z,101625.78
2019-05-05T23:32:02.829Z,101627.58
2019-05-05T23:34:36.494Z,101628.98
2019-05-05T23:37:08.423Z,101630.59
2019-05-05T23:39:42.108Z,101622.97
2019-05-05T23:42:19.876Z,101626.82
2019-05-05T23:44:55.511Z,101633.40
2019-05-05T23:47:27.819Z,101629.49
2019-05-05T23:50:01.145Z,101631.25
2019-05-05T23:52:37.058Z,101632.65
2019-05-05T23:55:08.843Z,101634.52
2019-05-05T23:57:44.275Z,101628.83
